createdAt,value
2023-02-19T00:02:35.337Z,7.8
2023-02-19T00:14:35.409Z,7.7
2023-02-19T00:26:35.618Z,7.7
2023-02-19T00:38:35.332Z,7.6
2023-02-19T00:50:35.407Z,7.6
2023-02-19T01:02:35.334Z,7.6
2023-02-19T01:14:35.407Z,7.6
2023-02-19T01:26:35.376Z,7.6
2023-02-19T01:38:35.332Z,7.6
2023-02-19T01:50:35.413Z,7.6
2023-02-19T02:02:35.382Z,7.6
2023-02-19T02:14:35.426Z,7.5
2023-02-19T02:26:35.381Z,7.5
2023-02-19T02:38:35.371Z,7.5
2023-02-19T02:50:35.466Z,7.4
2023-02-19T03:02:35.364Z,7.4
2023-02-19T03:14:35.392Z,7.4
2023-02-19T03:26:35.327Z,7.5
2023-02-19T03:38:35.329Z,7.5
2023-02-19T03:50:35.324Z,7.4
2023-02-19T04:02:35.324Z,7.3
2023-02-19T04:14:35.327Z,7.4
2023-02-19T04:26:35.414Z,7.5
2023-02-19T04:38:35.326Z,7.6
2023-02-19T04:50:35.335Z,7.6
2023-02-19T05:02:35.422Z,7.7
2023-02-19T05:14:35.328Z,7.8
2023-02-19T05:26:35.410Z,7.7
2023-02-19T05:38:35.738Z,7.7
2023-02-19T05:50:35.336Z,7.7
2023-02-19T06:02:35.434Z,7.7
2023-02-19T06:14:35.385Z,7.7
2023-02-19T06:26:35.444Z,7.7
2023-02-19T06:38:35.411Z,7.6
2023-02-19T06:50:35.369Z,7.6
2023-02-19T07:02:35.345Z,7.5
2023-02-19T07:14:35.371Z,7.5
2023-02-19T07:26:35.433Z,7.5
2023-02-19T07:38:35.336Z,7.6
2023-02-19T07:50:35.450Z,7.6
2023-02-19T08:02:35.460Z,7.6
2023-02-19T08:14:35.329Z,7.7
2023-02-19T08:26:35.416Z,7.7
2023-02-19T08:38:35.348Z,7.4
2023-02-19T08:50:35.409Z,7.5
2023-02-19T09:02:35.325Z,7.5
2023-02-19T09:14:35.328Z,7.4
2023-02-19T09:26:37.685Z,7.4
2023-02-19T09:38:35.332Z,7.5
2023-02-19T09:50:35.366Z,7.7
2023-02-19T10:02:35.412Z,8.1
2023-02-19T10:14:35.381Z,8.3
2023-02-19T10:26:35.341Z,8.4
2023-02-19T10:38:35.347Z,8.4
2023-02-19T10:50:36.427Z,8.2
2023-02-19T11:02:35.334Z,8.1
2023-02-19T11:14:35.349Z,8.2
2023-02-19T11:26:35.356Z,8.1
2023-02-19T11:38:35.342Z,8.1
2023-02-19T11:50:35.349Z,8.0
2023-02-19T12:02:35.447Z,8.3
2023-02-19T12:14:35.711Z,8.3
2023-02-19T12:26:35.332Z,8.3
2023-02-19T12:38:35.437Z,8.1
2023-02-19T12:50:35.397Z,8.0
2023-02-19T13:02:35.555Z,8.2
2023-02-19T13:14:35.335Z,8.1
2023-02-19T13:26:35.336Z,8.2
2023-02-19T13:38:35.328Z,8.1
2023-02-19T13:50:35.424Z,7.8
2023-02-19T14:02:35.588Z,8.0
2023-02-19T14:14:35.337Z,8.3
2023-02-19T14:26:35.329Z,8.2
2023-02-19T14:38:35.435Z,8.0
2023-02-19T14:50:35.414Z,8.0
2023-02-19T15:02:35.359Z,8.1
2023-02-19T15:14:35.380Z,8.0
2023-02-19T15:26:35.343Z,8.0
2023-02-19T15:38:35.452Z,7.9
2023-02-19T15:50:35.379Z,7.6
2023-02-19T16:02:35.338Z,7.5
2023-02-19T16:14:35.439Z,7.3
2023-02-19T16:26:35.377Z,7.3
2023-02-19T16:38:35.436Z,7.2
2023-02-19T16:50:35.367Z,7.2
2023-02-19T17:02:35.415Z,7.2
2023-02-19T17:14:35.378Z,7.2
2023-02-19T17:26:35.420Z,7.1
2023-02-19T17:38:35.327Z,7.1
2023-02-19T17:50:35.417Z,7.1
2023-02-19T18:02:35.344Z,7.2
2023-02-19T18:14:35.337Z,7.0
2023-02-19T18:26:35.429Z,6.7
2023-02-19T18:38:35.357Z,6.6
2023-02-19T18:50:35.435Z,6.7
2023-02-19T19:02:48.389Z,6.7
2023-02-19T19:14:35.397Z,6.7
2023-02-19T19:26:35.433Z,6.6
2023-02-19T19:38:35.450Z,6.5
2023-02-19T19:50:35.332Z,6.4
2023-02-19T20:02:35.488Z,6.4
2023-02-19T20:14:35.354Z,6.3
2023-02-19T20:26:35.355Z,6.3
2023-02-19T20:38:35.407Z,6.2
2023-02-19T20:50:35.419Z,6.2
2023-02-19T21:02:35.513Z,6.1
2023-02-19T21:14:35.405Z,6.2
2023-02-19T21:26:35.327Z,6.1
2023-02-19T21:38:36.207Z,6.0
2023-02-19T21:50:35.354Z,6.0
2023-02-19T22:02:35.347Z,6.0
2023-02-19T22:14:35.433Z,5.9
2023-02-19T22:26:35.425Z,5.8
2023-02-19T22:38:35.330Z,5.8
2023-02-19T22:50:35.337Z,5.8
2023-02-19T23:02:35.365Z,5.7
2023-02-19T23:14:35.403Z,5.6
2023-02-19T23:26:35.405Z,5.5
2023-02-19T23:38:35.373Z,5.2
2023-02-19T23:50:35.413Z,5.0
